Flight Track Log - Related Links

Times and Time Zones

All times are in EDT time to prevent confusion due to time zone crossing. See the BER7857 flight status page for this flight to view local times or setup timezone preferences in your user account.


Time Position Orientation Groundspeed Altitude Reporting Facility
EDT Latitude Longitude Course Direction KTS MPH feet Rate Location/Type
Wed 06:37:00 AM 38.5230 0.0405 63° Northeast  Level Estimated
Wed 06:38:00 AM 38.5571 0.1263 63° Northeast  Level Estimated
Wed 06:39:00 AM 38.5912 0.2122 63° Northeast  Level Estimated
Wed 06:40:00 AM 38.6253 0.2982 63° Northeast  Level Estimated
Wed 06:41:00 AM 38.6592 0.3843 63° Northeast  Level Estimated
Wed 06:42:00 AM 38.6931 0.4705 63° Northeast  Level Estimated
Wed 06:43:00 AM 38.7270 0.5568 63° Northeast  Level Estimated
Wed 06:44:00 AM 38.7607 0.6431 63° Northeast  Level Estimated
Wed 06:45:00 AM 38.7945 0.7295 63° Northeast  Level Estimated
Wed 06:46:00 AM 38.8281 0.8160 63° Northeast  Level Estimated
Wed 06:47:00 AM 38.8617 0.9026 63° Northeast  Level Estimated
Wed 06:48:00 AM 38.8952 0.9893 64° Northeast  Level Estimated
Wed 06:49:00 AM 38.9287 1.0760 64° Northeast  Level Estimated
Wed 06:50:00 AM 38.9621 1.1628 64° Northeast  Level Estimated
Wed 06:51:00 AM 38.9954 1.2497 64° Northeast  Level Estimated
Wed 06:52:00 AM 39.0286 1.3367 64° Northeast  Level Estimated
Wed 06:53:00 AM 39.0619 1.4238 64° Northeast  Level Estimated
Wed 06:54:00 AM 39.0950 1.5109 64° Northeast  Level Estimated
Wed 06:55:00 AM 39.1281 1.5982 64° Northeast  Level Estimated
Wed 06:56:00 AM 39.1610 1.6855 64° Northeast  Level Estimated
Wed 06:57:00 AM 39.1940 1.7729 64° Northeast  Level Estimated
Wed 06:58:00 AM 39.2269 1.8604 64° Northeast  Level Estimated
Wed 06:59:00 AM 39.2597 1.9479 64° Northeast  Level Estimated
Wed 07:00:00 AM 39.2924 2.0356 64° Northeast  Level Estimated
Wed 07:01:00 AM 39.3251 2.1233 64° Northeast  Level Estimated
Wed 07:02:00 AM 39.3577 2.2111 64° Northeast  Level Estimated
Wed 07:03:00 AM 39.3903 2.2990 64° Northeast  Level Estimated
Wed 07:04:00 AM 39.4227 2.3869 64° Northeast  Level Estimated
Wed 07:05:00 AM 39.4551 2.4750 64° Northeast  Level Estimated
Wed 07:06:00 AM 39.4875 2.5631 65° Northeast  Level Estimated
Wed 07:07:00 AM 39.5198 2.6513 65° Northeast  Level Estimated
Wed 07:08:00 AM 39.5517 2.7388 65° Northeast  Level Estimated

Login

Don't have an account? Register now (free) for customized features, flight alerts, and more!